createdAt,value
2017-06-18T00:00:14.785Z,62.65
2017-06-18T00:01:14.776Z,63.13
2017-06-18T00:04:14.760Z,62.65
2017-06-18T00:05:14.753Z,63.23
2017-06-18T00:06:14.748Z,62.84
2017-06-18T00:07:14.742Z,63.23
2017-06-18T00:08:14.449Z,63.13
2017-06-18T00:09:14.730Z,62.65
2017-06-18T00:10:14.730Z,62.75
2017-06-18T00:11:14.417Z,62.94
2017-06-18T00:12:14.713Z,63.13
2017-06-18T00:13:14.406Z,63.13
2017-06-18T00:14:14.702Z,62.94
2017-06-18T00:15:14.395Z,63.13
2017-06-18T00:16:14.389Z,62.94
2017-06-18T00:17:14.384Z,62.94
2017-06-18T00:18:14.682Z,62.94
2017-06-18T00:19:14.675Z,62.84
2017-06-18T00:20:14.669Z,62.94
2017-06-18T00:21:14.667Z,62.84
2017-06-18T00:22:14.659Z,63.03
2017-06-18T00:23:14.653Z,62.75
2017-06-18T00:24:14.342Z,62.65
2017-06-18T00:25:14.640Z,62.75
2017-06-18T00:26:14.634Z,62.84
2017-06-18T00:27:14.629Z,62.55
2017-06-18T00:28:14.623Z,62.84
2017-06-18T00:29:14.620Z,62.55
2017-06-18T00:30:14.613Z,62.55
2017-06-18T00:31:14.606Z,62.84
2017-06-18T00:32:14.602Z,63.13
2017-06-18T00:33:14.595Z,62.75
2017-06-18T00:34:14.590Z,63.32
2017-06-18T00:35:14.583Z,62.75
2017-06-18T00:36:14.577Z,63.32
2017-06-18T00:37:14.574Z,63.13
2017-06-18T00:38:14.567Z,63.03
2017-06-18T00:39:14.560Z,63.42
2017-06-18T00:40:14.554Z,63.42
2017-06-18T00:41:14.549Z,63.42
2017-06-18T00:42:14.543Z,63.67
2017-06-18T00:43:14.541Z,63.8
2017-06-18T00:44:14.531Z,63.48
2017-06-18T00:45:14.525Z,63.67
2017-06-18T00:46:14.721Z,63.48
2017-06-18T00:50:15.710Z,63.1
2017-06-18T00:51:14.489Z,63.32
2017-06-18T00:53:14.483Z,63.32
2017-06-18T00:54:14.171Z,63.29
2017-06-18T00:55:14.468Z,63.39
2017-06-18T00:56:14.461Z,63.1
2017-06-18T00:57:14.460Z,63.48
2017-06-18T00:58:14.146Z,63.57
2017-06-18T01:07:14.398Z,64.15
2017-06-18T01:13:14.362Z,63.86
2017-06-18T01:14:14.356Z,64.62
2017-06-18T01:15:14.758Z,64.62
2017-06-18T01:16:14.242Z,64.62
2017-06-18T01:17:14.364Z,64.43
2017-06-18T01:18:14.330Z,64.25
2017-06-18T01:19:14.023Z,64.05
2017-06-18T01:20:14.319Z,64.15
2017-06-18T01:22:14.308Z,64.15
2017-06-18T01:23:14.606Z,64.25
2017-06-18T01:25:14.290Z,64.34
2017-06-18T01:26:14.283Z,64.53
2017-06-18T01:27:14.279Z,64.62
2017-06-18T01:28:14.270Z,64.62
2017-06-18T01:29:14.265Z,64.62
2017-06-18T01:30:14.262Z,64.53
2017-06-18T01:31:14.254Z,65.01
2017-06-18T01:32:14.247Z,64.81
2017-06-18T01:33:14.243Z,64.72
2017-06-18T01:34:14.233Z,65.01
2017-06-18T01:35:14.231Z,65.39
2017-06-18T01:36:14.222Z,65.3
2017-06-18T01:37:14.215Z,65.1
2017-06-18T01:38:14.210Z,65.39
2017-06-18T01:39:14.204Z,65.3
2017-06-18T01:40:14.197Z,65.39
2017-06-18T01:41:14.192Z,65.1
2017-06-18T01:42:14.184Z,65.39
2017-06-18T01:44:14.172Z,65.2
2017-06-18T01:45:14.173Z,65.2
2017-06-18T01:46:14.164Z,65.2
2017-06-18T01:47:14.154Z,65.3
2017-06-18T01:48:14.147Z,65.3
2017-06-18T01:49:14.142Z,65.39
2017-06-18T01:50:14.165Z,65.1
2017-06-18T01:51:14.129Z,65.39
2017-06-18T01:52:14.124Z,65.39
2017-06-18T01:53:14.116Z,65.3
2017-06-18T01:54:14.114Z,65.48
2017-06-18T01:55:14.105Z,65.3
2017-06-18T01:56:14.099Z,65.77
2017-06-18T01:57:14.092Z,65.77
2017-06-18T01:58:14.087Z,65.77
2017-06-18T01:59:14.079Z,65.67
2017-06-18T02:00:14.074Z,65.67
2017-06-18T02:01:14.068Z,65.67
2017-06-18T02:02:14.063Z,65.3
2017-06-18T02:03:14.055Z,65.39
2017-06-18T02:04:14.051Z,65.58
2017-06-18T02:05:14.044Z,64.91
2017-06-18T02:06:14.037Z,65.58
2017-06-18T02:07:14.031Z,65.48
2017-06-18T02:08:14.026Z,65.58
2017-06-18T02:09:14.017Z,65.3
2017-06-18T02:10:14.014Z,65.74
2017-06-18T02:11:14.005Z,65.83
2017-06-18T02:12:13.700Z,65.83
2017-06-18T02:13:13.994Z,66.02
2017-06-18T02:14:13.990Z,65.96
2017-06-18T02:15:13.984Z,65.87
2017-06-18T02:16:13.975Z,65.83
2017-06-18T02:17:13.967Z,66.02
2017-06-18T02:18:13.961Z,65.83
2017-06-18T02:19:13.956Z,65.74
2017-06-18T02:20:13.950Z,65.64
2017-06-18T02:21:13.943Z,65.83
2017-06-18T02:22:13.938Z,65.74
2017-06-18T02:23:13.932Z,65.83
2017-06-18T02:24:13.925Z,66.02
2017-06-18T02:25:13.918Z,65.64
2017-06-18T02:26:13.912Z,65.74
2017-06-18T02:27:13.603Z,66.02
2017-06-18T02:28:13.900Z,66.31
2017-06-18T02:29:13.894Z,65.93
2017-06-18T02:30:13.888Z,66.02
2017-06-18T02:31:13.880Z,66.31
2017-06-18T02:32:13.873Z,65.93
2017-06-18T02:33:13.869Z,66.5
2017-06-18T02:34:13.865Z,66.02
2017-06-18T02:35:13.554Z,66.31
2017-06-18T02:36:13.850Z,66.41
2017-06-18T02:37:13.843Z,66.41
2017-06-18T02:38:13.835Z,66.31
2017-06-18T02:39:13.830Z,66.41
2017-06-18T02:45:13.793Z,66.31
2017-06-18T02:46:13.484Z,66.31
2017-06-18T02:47:13.783Z,66.15
2017-06-18T02:48:13.779Z,66.02
2017-06-18T02:49:13.465Z,66.25
2017-06-18T02:50:13.762Z,66.35
2017-06-18T02:51:13.753Z,66.44
2017-06-18T02:52:13.748Z,66.41
2017-06-18T02:54:13.736Z,66.22
2017-06-18T02:55:13.729Z,66.15
2017-06-18T02:56:13.724Z,66.15
2017-06-18T02:57:13.716Z,65.96
2017-06-18T02:58:13.711Z,66.35
2017-06-18T02:59:13.704Z,66.15
2017-06-18T03:00:13.396Z,66.35
2017-06-18T03:01:13.696Z,66.06
2017-06-18T03:02:13.380Z,66.25
2017-06-18T03:03:13.679Z,66.25
2017-06-18T03:04:13.370Z,66.44
2017-06-18T03:05:13.667Z,66.25
2017-06-18T03:06:13.359Z,66.15
2017-06-18T03:07:13.654Z,66.63
2017-06-18T03:08:13.647Z,66.25
2017-06-18T03:09:13.642Z,66.15
2017-06-18T03:10:13.637Z,65.96
2017-06-18T03:11:13.631Z,66.06
2017-06-18T03:12:13.624Z,65.77
2017-06-18T03:13:13.621Z,66.35
2017-06-18T03:14:13.611Z,65.48
2017-06-18T03:15:13.606Z,66.06
2017-06-18T03:16:13.599Z,65.87
2017-06-18T03:17:13.593Z,65.77
2017-06-18T03:18:13.588Z,66.25
2017-06-18T03:19:13.582Z,66.06
2017-06-18T03:20:13.576Z,65.77
2017-06-18T03:21:13.570Z,66.09
2017-06-18T03:22:13.564Z,65.71
2017-06-18T03:23:13.559Z,66.09
2017-06-18T03:24:13.553Z,65.8
2017-06-18T03:33:13.504Z,63.16
2017-06-18T03:34:13.197Z,63.26
2017-06-18T03:35:13.497Z,62.71
2017-06-18T03:36:13.491Z,62.9
2017-06-18T03:37:13.487Z,62.74
2017-06-18T03:38:13.179Z,62.39
2017-06-18T03:39:13.481Z,62.2
2017-06-18T03:40:13.476Z,62.23
2017-06-18T03:41:13.473Z,62.04
2017-06-18T03:42:13.470Z,61.78
2017-06-18T03:43:13.468Z,61.62
2017-06-18T03:44:13.158Z,61.52
2017-06-18T03:45:13.461Z,61.55
2017-06-18T03:46:13.156Z,61.27
2017-06-18T03:47:13.456Z,61.3
2017-06-18T03:48:13.453Z,61.11
2017-06-18T03:49:13.451Z,61.14
2017-06-18T03:50:13.451Z,60.97
2017-06-18T03:51:13.451Z,60.88
2017-06-18T03:52:13.448Z,61.1
2017-06-18T03:53:13.447Z,60.46
2017-06-18T03:54:13.446Z,60.46
2017-06-18T03:55:13.443Z,59.91
2017-06-18T03:56:13.446Z,59.65
2017-06-18T03:57:13.445Z,59.65
2017-06-18T03:58:13.444Z,58.81
2017-06-18T03:59:13.444Z,58.55
2017-06-18T04:00:13.446Z,57.68
2017-06-18T04:01:13.447Z,57.62
2017-06-18T04:02:13.447Z,56.65
2017-06-18T04:03:13.448Z,56.77
2017-06-18T04:04:13.449Z,56.41
2017-06-18T04:05:13.451Z,55.35
2017-06-18T04:06:13.453Z,54.99
2017-06-18T04:07:13.455Z,54.15
2017-06-18T04:08:13.458Z,53.47
2017-06-18T04:09:13.462Z,53.89
2017-06-18T04:10:13.463Z,53.11
2017-06-18T04:11:13.468Z,52.17
2017-06-18T04:12:13.470Z,51.78
2017-06-18T04:13:13.473Z,51.32
2017-06-18T04:14:13.174Z,51.23
2017-06-18T04:15:13.482Z,50.57
2017-06-18T04:16:13.486Z,49.63
2017-06-18T04:17:13.490Z,49.05
2017-06-18T04:18:13.494Z,48.78
2017-06-18T04:19:13.500Z,47.45
2017-06-18T04:20:13.506Z,47.64
2017-06-18T04:21:13.511Z,46.98
2017-06-18T04:22:13.517Z,46.69
2017-06-18T04:23:13.521Z,45.84
2017-06-18T04:24:13.528Z,45.07
2017-06-18T04:25:13.533Z,44.31
2017-06-18T04:26:13.237Z,43.65
2017-06-18T04:27:13.549Z,42.39
2017-06-18T04:28:13.552Z,42.39
2017-06-18T04:29:13.558Z,42.02
2017-06-18T04:30:13.566Z,41.34
2017-06-18T04:31:13.574Z,41.06
2017-06-18T04:32:13.581Z,40.29
2017-06-18T04:33:13.586Z,39.61
2017-06-18T04:34:13.595Z,39.24
2017-06-18T04:35:13.604Z,38.65
2017-06-18T04:36:13.610Z,38.09
2017-06-18T04:37:13.617Z,37.91
2017-06-18T04:38:13.637Z,37.71
2017-06-18T04:39:13.633Z,37.43
2017-06-18T04:40:13.641Z,36.76
2017-06-18T04:41:13.652Z,36.76
2017-06-18T04:42:13.663Z,36.29
2017-06-18T04:43:13.669Z,35.41
2017-06-18T04:44:13.677Z,34.55
2017-06-18T04:45:13.686Z,34.26
2017-06-18T04:46:13.392Z,33.4
2017-06-18T04:47:13.704Z,33.79
2017-06-18T04:48:13.713Z,33.3
2017-06-18T04:49:13.724Z,33.02
2017-06-18T04:50:13.732Z,32.55
2017-06-18T04:51:13.742Z,32.06
2017-06-18T04:52:13.752Z,31.87
2017-06-18T04:53:13.763Z,31.39
2017-06-18T04:54:13.771Z,31.11
2017-06-18T04:55:13.785Z,30.82
2017-06-18T04:56:13.791Z,30.35
2017-06-18T04:57:13.802Z,29.85
2017-06-18T04:58:13.810Z,30.07
2017-06-18T04:59:13.822Z,29.18
2017-06-18T05:00:13.833Z,29.48
2017-06-18T05:01:13.845Z,28.69
2017-06-18T05:02:13.855Z,28.81
2017-06-18T05:03:13.864Z,28.41
2017-06-18T05:04:13.875Z,28.51
2017-06-18T05:05:13.884Z,28.13
2017-06-18T05:06:13.895Z,27.94
2017-06-18T05:07:13.908Z,27.94
2017-06-18T05:08:13.917Z,27.56
2017-06-18T05:09:13.932Z,27.07
2017-06-18T05:10:13.941Z,26.87
2017-06-18T05:11:13.952Z,26.89
2017-06-18T05:12:13.658Z,26.59
2017-06-18T05:13:13.672Z,26.31
2017-06-18T05:14:13.992Z,25.82
2017-06-18T05:15:13.999Z,26.21
2017-06-18T05:16:14.008Z,25.93
2017-06-18T05:17:13.718Z,25.44
2017-06-18T05:18:14.033Z,25.16
2017-06-18T05:19:14.044Z,25.35
2017-06-18T05:20:14.057Z,25.45
2017-06-18T05:21:14.069Z,25.27
2017-06-18T05:22:14.087Z,25.27
2017-06-18T05:23:14.095Z,25.17
2017-06-18T05:24:14.107Z,24.68
2017-06-18T05:25:16.142Z,24.48
2017-06-18T05:26:14.131Z,24.1
2017-06-18T05:27:14.146Z,24.88
2017-06-18T05:28:13.853Z,24.1
2017-06-18T05:29:14.169Z,24.49
2017-06-18T05:30:14.185Z,24.41
2017-06-18T05:31:14.195Z,24.51
2017-06-18T05:32:14.209Z,24.11
2017-06-18T05:33:14.221Z,24.21
2017-06-18T05:34:14.236Z,23.62
2017-06-18T05:35:14.247Z,24.01
2017-06-18T05:36:14.261Z,23.72
2017-06-18T05:37:14.275Z,24.11
2017-06-18T05:38:14.287Z,24.19
2017-06-18T05:39:14.300Z,24.21
2017-06-18T05:40:14.314Z,24.21
2017-06-18T05:41:14.329Z,24.11
2017-06-18T05:42:14.341Z,23.93
2017-06-18T05:43:14.356Z,24.04
2017-06-18T05:44:14.369Z,23.25
2017-06-18T05:45:14.383Z,23.16
2017-06-18T05:46:14.397Z,22.77
2017-06-18T05:47:14.109Z,22.19
2017-06-18T05:48:14.427Z,22.3
2017-06-18T05:49:14.440Z,21.7
2017-06-18T05:50:14.456Z,21.81
2017-06-18T05:51:14.470Z,21.51
2017-06-18T05:52:14.485Z,21.53
2017-06-18T05:53:14.498Z,21.03
2017-06-18T05:54:14.209Z,20.55
2017-06-18T05:55:14.528Z,20.15
2017-06-18T05:56:14.544Z,20.36
2017-06-18T05:57:14.560Z,19.67
2017-06-18T05:58:14.572Z,19.77
2017-06-18T05:59:14.589Z,20.16
2017-06-18T06:00:14.606Z,20.65
2017-06-18T06:01:14.620Z,19.85
2017-06-18T06:02:14.637Z,20.26
2017-06-18T06:03:14.651Z,19.87
2017-06-18T06:04:14.667Z,19.87
2017-06-18T06:05:14.684Z,19.38
2017-06-18T06:06:14.731Z,19.68
2017-06-18T06:07:14.714Z,19.68
2017-06-18T06:08:14.732Z,19.29
2017-06-18T06:09:14.748Z,19.49
2017-06-18T06:10:14.764Z,19.5
2017-06-18T06:11:14.780Z,19.2
2017-06-18T06:12:14.801Z,19.3
2017-06-18T06:13:14.814Z,18.82
2017-06-18T06:14:14.829Z,18.82
2017-06-18T06:15:14.848Z,18.82
2017-06-18T06:16:14.869Z,18.63
2017-06-18T06:17:14.885Z,18.63
2017-06-18T06:18:14.900Z,18.23
2017-06-18T06:19:14.917Z,18.14
2017-06-18T06:20:14.936Z,17.54
2017-06-18T06:21:14.956Z,17.35
2017-06-18T06:22:14.972Z,17.84
2017-06-18T06:23:14.990Z,17.65
2017-06-18T06:24:15.007Z,17.35
2017-06-18T06:25:15.025Z,16.96
2017-06-18T06:26:14.740Z,16.96
2017-06-18T06:27:15.063Z,16.86
2017-06-18T06:28:15.081Z,16.47
2017-06-18T06:29:15.099Z,16.77
2017-06-18T06:30:14.813Z,16.58
2017-06-18T06:31:15.138Z,16.19
2017-06-18T06:32:15.154Z,15.99
2017-06-18T06:33:15.179Z,15.39
2017-06-18T06:34:15.192Z,15.49
2017-06-18T06:35:15.214Z,15.69
2017-06-18T06:36:15.231Z,15.89
2017-06-18T06:37:15.250Z,15.59
2017-06-18T06:38:15.273Z,15.99
2017-06-18T06:39:15.289Z,15.49
2017-06-18T06:40:15.310Z,15.3
2017-06-18T06:41:15.328Z,15.49
2017-06-18T06:42:15.349Z,15.3
2017-06-18T06:43:15.366Z,15.19
2017-06-18T06:44:15.387Z,15.09
2017-06-18T06:45:15.408Z,14.7
2017-06-18T06:46:15.429Z,14.9
2017-06-18T06:47:15.447Z,14.8
2017-06-18T06:48:15.167Z,14.7
2017-06-18T06:49:15.488Z,14.4
2017-06-18T06:50:15.507Z,14.21
2017-06-18T06:51:15.528Z,14.4
2017-06-18T06:52:15.549Z,14.7
2017-06-18T06:53:15.570Z,14.51
2017-06-18T06:54:15.586Z,14.61
2017-06-18T06:55:15.609Z,14.22
2017-06-18T06:56:15.628Z,14.22
2017-06-18T06:58:15.668Z,14.22
2017-06-18T06:59:15.386Z,13.62
2017-06-18T07:00:15.710Z,13.71
2017-06-18T07:01:15.731Z,14.12
2017-06-18T07:02:15.446Z,14.01
2017-06-18T07:03:15.774Z,13.62
2017-06-18T07:04:15.792Z,13.82
2017-06-18T07:05:15.813Z,13.43
2017-06-18T07:06:15.835Z,13.02
2017-06-18T07:07:15.853Z,13.32
2017-06-18T07:08:15.875Z,13.02
2017-06-18T07:09:15.895Z,13.23
2017-06-18T07:10:15.915Z,13.13
2017-06-18T07:11:15.936Z,13.03
2017-06-18T07:12:15.958Z,13.44
2017-06-18T07:13:15.977Z,12.94
2017-06-18T07:14:16.001Z,12.84
2017-06-18T07:15:16.022Z,12.75
2017-06-18T07:16:16.039Z,13.25
2017-06-18T07:17:16.061Z,12.76
2017-06-18T07:18:16.085Z,12.86
2017-06-18T07:19:16.104Z,12.46
2017-06-18T07:20:16.124Z,12.06
2017-06-18T07:21:16.146Z,12.46
2017-06-18T07:22:16.169Z,12.46
2017-06-18T07:23:17.404Z,12.35
2017-06-18T07:24:16.208Z,12.76
2017-06-18T07:25:16.230Z,13.24
2017-06-18T07:26:16.250Z,13.24
2017-06-18T07:27:16.272Z,12.74
2017-06-18T07:28:16.292Z,12.94
2017-06-18T07:29:18.133Z,13.34
2017-06-18T07:30:17.547Z,13.23
2017-06-18T07:31:16.353Z,13.53
2017-06-18T07:32:16.373Z,13.63
2017-06-18T07:33:16.393Z,14.22
2017-06-18T07:34:16.414Z,13.62
2017-06-18T07:35:16.435Z,14.01
2017-06-18T07:36:16.454Z,14.01
2017-06-18T07:37:16.475Z,14.51
2017-06-18T07:38:16.494Z,14.59
2017-06-18T07:39:16.515Z,15.37
2017-06-18T07:40:16.532Z,15.56
2017-06-18T07:41:16.554Z,15.45
2017-06-18T07:42:16.569Z,16.04
2017-06-18T07:43:16.590Z,16.14
2017-06-18T07:44:16.303Z,15.84
2017-06-18T07:45:16.629Z,16.04
2017-06-18T07:46:16.658Z,16.14
2017-06-18T07:47:16.661Z,16.24
2017-06-18T07:48:16.682Z,16.25
2017-06-18T07:49:16.696Z,15.95
2017-06-18T07:50:16.716Z,15.46
2017-06-18T07:51:16.736Z,15.27
2017-06-18T07:52:16.754Z,14.88
2017-06-18T07:53:16.471Z,14.68
2017-06-18T07:54:16.791Z,15.27
2017-06-18T07:55:16.809Z,14.68
2017-06-18T07:56:16.828Z,14.69
2017-06-18T07:57:16.848Z,14.87
2017-06-18T07:58:16.867Z,14.78
2017-06-18T07:59:16.885Z,14.97
2017-06-18T08:00:16.904Z,15.36
2017-06-18T08:01:16.924Z,15.85
2017-06-18T08:02:16.637Z,15.45
2017-06-18T08:03:16.958Z,16.53
2017-06-18T08:04:16.975Z,16.92
2017-06-18T08:05:16.994Z,16.32
2017-06-18T08:06:17.010Z,16.81
2017-06-18T08:07:17.027Z,17.02
2017-06-18T08:08:17.045Z,16.22
2017-06-18T08:09:17.062Z,16.12
2017-06-18T08:10:17.081Z,16.31
2017-06-18T08:11:17.101Z,16.41
2017-06-18T08:12:17.118Z,16.41
2017-06-18T08:13:17.135Z,16.62
2017-06-18T08:14:17.153Z,16.42
2017-06-18T08:15:17.172Z,16.72
2017-06-18T08:16:17.189Z,16.13
2017-06-18T08:17:17.210Z,16.51
2017-06-18T08:18:17.224Z,16.6
2017-06-18T08:19:17.242Z,17.19
2017-06-18T08:20:16.957Z,17.78
2017-06-18T08:21:17.278Z,18.27
2017-06-18T08:22:17.296Z,17.87
2017-06-18T08:23:17.314Z,17.19
2017-06-18T08:24:17.333Z,17.39
2017-06-18T08:25:17.348Z,16.69
2017-06-18T08:26:17.367Z,17
2017-06-18T08:27:17.385Z,17.3
2017-06-18T08:28:17.403Z,16.5
2017-06-18T08:29:17.419Z,17.1
2017-06-18T08:30:17.439Z,17.3
2017-06-18T08:31:17.457Z,17.8
2017-06-18T08:32:17.476Z,17.4
2017-06-18T08:33:17.493Z,16.32
2017-06-18T08:34:17.511Z,16.32
2017-06-18T08:35:17.531Z,16.42
2017-06-18T08:36:17.550Z,16.32
2017-06-18T08:37:17.567Z,16.72
2017-06-18T08:38:17.586Z,16.61
2017-06-18T08:39:17.603Z,17
2017-06-18T08:40:17.624Z,16.81
2017-06-18T08:41:17.641Z,16.8
2017-06-18T08:42:17.664Z,17.1
2017-06-18T08:43:17.680Z,17.39
2017-06-18T08:44:17.697Z,16.89
2017-06-18T08:45:17.715Z,17.28
2017-06-18T08:46:17.734Z,17.28
2017-06-18T08:47:17.752Z,17.37
2017-06-18T08:48:17.772Z,17.76
2017-06-18T08:49:17.789Z,18.55
2017-06-18T08:50:17.808Z,19.04
2017-06-18T08:51:17.824Z,19.04
2017-06-18T08:52:17.844Z,18.84
2017-06-18T08:53:17.864Z,18.94
2017-06-18T08:54:17.879Z,19.32
2017-06-18T08:55:17.895Z,18.92
2017-06-18T08:56:17.911Z,19.49
2017-06-18T08:57:17.928Z,20.17
2017-06-18T08:58:17.946Z,20.85
2017-06-18T08:59:17.960Z,21.23
2017-06-18T09:00:17.976Z,21.72
2017-06-18T09:01:17.991Z,22.97
2017-06-18T09:02:18.004Z,23.25
2017-06-18T09:03:18.020Z,23.55
2017-06-18T09:04:18.038Z,24.03
2017-06-18T09:05:18.049Z,24.8
2017-06-18T09:06:18.066Z,24.98
2017-06-18T09:07:18.076Z,24.98
2017-06-18T09:08:17.787Z,25.46
2017-06-18T09:09:18.101Z,25.07
2017-06-18T09:10:18.113Z,26.23
2017-06-18T09:11:18.125Z,26.12
2017-06-18T09:12:18.138Z,26.79
2017-06-18T09:13:18.150Z,27.47
2017-06-18T09:14:17.858Z,28.05
2017-06-18T09:15:18.170Z,28.63
2017-06-18T09:16:18.183Z,28.81
2017-06-18T09:17:18.193Z,29.38
2017-06-18T09:18:18.202Z,30.34
2017-06-18T09:19:18.211Z,30.15
2017-06-18T09:20:18.222Z,30.81
2017-06-18T09:21:18.230Z,31.01
2017-06-18T09:22:18.240Z,30.99
2017-06-18T09:23:18.250Z,31.76
2017-06-18T09:24:18.256Z,33.31
2017-06-18T09:25:18.267Z,33.2
2017-06-18T09:26:18.276Z,33.09
2017-06-18T09:27:18.283Z,33.58
2017-06-18T09:28:18.290Z,34.06
2017-06-18T09:29:18.299Z,35.21
2017-06-18T09:30:18.307Z,35.02
2017-06-18T09:31:18.317Z,35.5
2017-06-18T09:32:18.322Z,36.85
2017-06-18T09:33:18.335Z,36.65
2017-06-18T09:34:18.336Z,36.15
2017-06-18T09:35:18.344Z,36.54
2017-06-18T09:36:18.349Z,36.93
2017-06-18T09:37:18.356Z,37.1
2017-06-18T09:38:18.364Z,37.68
2017-06-18T09:39:18.368Z,37.57
2017-06-18T09:40:18.374Z,38.44
2017-06-18T09:41:18.381Z,38.93
2017-06-18T09:42:18.389Z,39.59
2017-06-18T09:43:18.396Z,39.39
2017-06-18T09:44:18.094Z,39.98
2017-06-18T09:45:18.407Z,40.46
2017-06-18T09:46:18.408Z,41.02
2017-06-18T09:47:18.414Z,41.02
2017-06-18T09:48:18.119Z,41.8
2017-06-18T09:49:18.424Z,41.89
2017-06-18T09:50:18.429Z,42.67
2017-06-18T09:51:18.435Z,41.97
2017-06-18T09:52:18.442Z,41.97
2017-06-18T09:53:18.442Z,42.07
2017-06-18T09:54:18.145Z,42.46
2017-06-18T09:55:18.452Z,41.78
2017-06-18T09:56:18.457Z,41.88
2017-06-18T09:57:18.461Z,41.95
2017-06-18T09:58:18.465Z,40.33
2017-06-18T09:59:18.468Z,40.31
2017-06-18T10:00:18.473Z,40.99
2017-06-18T10:01:18.477Z,41.66
2017-06-18T10:02:18.483Z,41.86
2017-06-18T10:03:18.485Z,43.7
2017-06-18T10:04:18.490Z,43.21
2017-06-18T10:05:18.191Z,43.79
2017-06-18T10:06:18.496Z,43.89
2017-06-18T10:07:18.502Z,42.72
2017-06-18T10:08:18.504Z,42.63
2017-06-18T10:09:18.508Z,42.82
2017-06-18T10:10:18.511Z,44.35
2017-06-18T10:11:18.517Z,44.93
2017-06-18T10:12:18.517Z,44.64
2017-06-18T10:13:18.523Z,44.45
2017-06-18T10:14:18.525Z,44.35
2017-06-18T10:15:18.529Z,44.16
2017-06-18T10:16:18.532Z,43.58
2017-06-18T10:17:18.536Z,43.5
2017-06-18T10:18:18.540Z,43.5
2017-06-18T10:19:18.546Z,43.99
2017-06-18T10:20:18.243Z,44.09
2017-06-18T10:21:18.246Z,43.31
2017-06-18T10:22:18.557Z,42.34
2017-06-18T10:23:18.255Z,42.14
2017-06-18T10:24:18.562Z,42.13
2017-06-18T10:25:18.567Z,42.44
2017-06-18T10:26:18.567Z,40.99
2017-06-18T10:27:18.569Z,40.4
2017-06-18T10:28:18.576Z,40.09
2017-06-18T10:29:18.577Z,40.86
2017-06-18T10:30:18.579Z,41.25
2017-06-18T10:31:18.584Z,41.16
2017-06-18T10:32:18.587Z,41.25
2017-06-18T10:33:18.595Z,41.55
2017-06-18T10:34:19.806Z,43.68
2017-06-18T10:35:18.597Z,44.33
2017-06-18T10:36:18.600Z,43.38
2017-06-18T10:37:18.601Z,42.22
2017-06-18T10:38:18.606Z,41.35
2017-06-18T10:39:18.607Z,41.55
2017-06-18T10:40:18.617Z,41.93
2017-06-18T10:41:18.628Z,42.13
2017-06-18T10:42:18.617Z,41.74
2017-06-18T10:43:18.623Z,41.35
2017-06-18T10:44:18.625Z,41.25
2017-06-18T10:45:18.628Z,41.35
2017-06-18T10:46:18.632Z,41.83
2017-06-18T10:47:18.632Z,42.61
2017-06-18T10:48:18.637Z,42.41
2017-06-18T10:49:18.638Z,41.17
2017-06-18T10:50:18.643Z,40.31
2017-06-18T10:51:18.645Z,40.67
2017-06-18T10:52:18.650Z,40.28
2017-06-18T10:53:18.654Z,40
2017-06-18T10:54:18.655Z,40.38
2017-06-18T10:55:18.658Z,40.09
2017-06-18T10:56:18.660Z,40.28
2017-06-18T10:57:18.696Z,40.19
2017-06-18T10:58:18.364Z,39.32
2017-06-18T10:59:18.669Z,39.12
2017-06-18T11:00:18.674Z,38.15
2017-06-18T11:01:18.678Z,37.48
2017-06-18T11:02:18.681Z,37.28
2017-06-18T11:03:18.684Z,37.48
2017-06-18T11:04:18.381Z,37.57
2017-06-18T11:05:18.689Z,38.06
2017-06-18T11:06:18.691Z,38.73
2017-06-18T11:07:18.694Z,38.83
2017-06-18T11:08:18.699Z,39.12
2017-06-18T11:09:18.702Z,38.73
2017-06-18T11:10:18.703Z,39.03
2017-06-18T11:11:18.707Z,38.83
2017-06-18T11:12:18.710Z,38.85
2017-06-18T11:13:18.715Z,38.93
2017-06-18T11:14:18.716Z,39.04
2017-06-18T11:15:18.721Z,38.95
2017-06-18T11:16:18.723Z,37.98
2017-06-18T11:17:18.724Z,38.17
2017-06-18T11:18:18.727Z,38.27
2017-06-18T11:19:18.732Z,38.07
2017-06-18T11:20:18.733Z,37.49
2017-06-18T11:21:18.735Z,37.11
2017-06-18T11:22:18.438Z,37.3
2017-06-18T11:23:18.440Z,37.11
2017-06-18T11:24:18.747Z,37.49
2017-06-18T11:25:18.748Z,37.3
2017-06-18T11:26:18.751Z,37.49
2017-06-18T11:27:18.757Z,37.69
2017-06-18T11:28:18.759Z,37.21
2017-06-18T11:29:18.767Z,36.62
2017-06-18T11:30:18.768Z,36.14
2017-06-18T11:31:18.768Z,36.04
2017-06-18T11:32:18.770Z,36.14
2017-06-18T11:33:18.773Z,36.24
2017-06-18T11:34:18.777Z,36.52
2017-06-18T11:35:18.476Z,37.3
2017-06-18T11:36:18.784Z,37.11
2017-06-18T11:37:18.786Z,36.24
2017-06-18T11:38:18.791Z,35.36
2017-06-18T11:39:18.792Z,34.88
2017-06-18T11:40:18.491Z,35.66
2017-06-18T11:41:18.496Z,35.66
2017-06-18T11:42:18.803Z,35.94
2017-06-18T11:43:18.805Z,35.66
2017-06-18T11:44:18.807Z,36.04
2017-06-18T11:45:18.810Z,36.24
2017-06-18T11:46:18.814Z,35.66
2017-06-18T11:47:18.816Z,35.75
2017-06-18T11:48:18.820Z,35.46
2017-06-18T11:49:18.823Z,34.97
2017-06-18T11:50:18.826Z,34.88
2017-06-18T11:51:18.829Z,34.78
2017-06-18T11:52:18.834Z,36.04
2017-06-18T11:53:18.835Z,36.24
2017-06-18T11:54:18.841Z,36.35
2017-06-18T11:55:18.843Z,36.16
2017-06-18T11:56:18.845Z,37.03
2017-06-18T11:57:18.849Z,36.74
2017-06-18T11:58:18.853Z,36.06
2017-06-18T11:59:18.855Z,35.36
2017-06-18T12:00:18.859Z,35.86
2017-06-18T12:01:18.859Z,35.57
2017-06-18T12:02:18.865Z,35.38
2017-06-18T12:03:18.868Z,35.57
2017-06-18T12:04:18.566Z,35.57
2017-06-18T12:05:18.875Z,35.96
2017-06-18T12:06:18.875Z,35.09
2017-06-18T12:07:18.881Z,33.34
2017-06-18T12:08:18.887Z,31.21
2017-06-18T12:09:18.886Z,29.76
2017-06-18T12:10:18.890Z,30.34
2017-06-18T12:11:18.892Z,30.05
2017-06-18T12:12:18.895Z,30.92
2017-06-18T12:13:18.596Z,32.76
2017-06-18T12:14:18.902Z,33.06
2017-06-18T12:15:18.600Z,34.02
2017-06-18T12:16:18.909Z,33.25
2017-06-18T12:17:18.912Z,33.25
2017-06-18T12:18:18.914Z,33.54
2017-06-18T12:19:18.918Z,33.54
2017-06-18T12:20:18.920Z,33.34
2017-06-18T12:21:18.924Z,32.76
2017-06-18T12:22:18.927Z,32.18
2017-06-18T12:23:18.931Z,33.06
2017-06-18T12:24:18.935Z,33.06
2017-06-18T12:25:18.939Z,33.56
2017-06-18T12:26:18.944Z,33.34
2017-06-18T12:27:18.942Z,33.73
2017-06-18T12:28:18.946Z,34.41
2017-06-18T12:29:18.950Z,34.53
2017-06-18T12:30:18.955Z,33.94
2017-06-18T12:31:18.959Z,33.07
2017-06-18T12:32:18.960Z,32.96
2017-06-18T12:33:18.963Z,32.87
2017-06-18T12:34:18.967Z,32.68
2017-06-18T12:35:18.969Z,32.97
2017-06-18T12:36:18.987Z,32.78
2017-06-18T12:37:18.675Z,32.97
2017-06-18T12:38:18.981Z,32.39
2017-06-18T12:39:18.983Z,32.1
2017-06-18T12:40:18.988Z,31.91
2017-06-18T12:41:18.993Z,32.39
2017-06-18T12:42:18.694Z,32.78
2017-06-18T12:43:18.695Z,32.78
2017-06-18T12:44:19.001Z,33.56
2017-06-18T12:45:18.701Z,33.26
2017-06-18T12:46:19.007Z,32.59
2017-06-18T12:47:19.012Z,32.97
2017-06-18T12:48:19.015Z,32.78
2017-06-18T12:49:19.020Z,33.56
2017-06-18T12:50:19.021Z,33.26
2017-06-18T12:51:18.722Z,32.97
2017-06-18T12:52:19.030Z,32.97
2017-06-18T12:53:19.032Z,33.17
2017-06-18T12:54:19.037Z,33.07
2017-06-18T12:55:18.738Z,32.78
2017-06-18T12:56:19.042Z,33.46
2017-06-18T12:57:19.049Z,33.36
2017-06-18T12:58:19.054Z,33.75
2017-06-18T12:59:19.051Z,34.14
2017-06-18T13:00:18.754Z,34.53
2017-06-18T13:01:19.063Z,34.7
2017-06-18T13:02:19.062Z,34.61
2017-06-18T13:03:19.066Z,34.51
2017-06-18T13:04:18.765Z,34.12
2017-06-18T13:05:19.073Z,34.31
2017-06-18T13:06:18.772Z,34.7
2017-06-18T13:07:19.079Z,34.99
2017-06-18T13:08:19.083Z,34.7
2017-06-18T13:09:19.088Z,34.61
2017-06-18T13:10:19.089Z,34.22
2017-06-18T13:11:19.094Z,34.51
2017-06-18T13:12:19.095Z,34.31
2017-06-18T13:13:19.099Z,34.22
2017-06-18T13:14:19.101Z,34.72
2017-06-18T13:15:19.104Z,34.72
2017-06-18T13:16:19.109Z,35.01
2017-06-18T13:17:19.111Z,35.59
2017-06-18T13:18:19.115Z,34.62
2017-06-18T13:19:19.120Z,34.72
2017-06-18T13:20:19.122Z,34.62
2017-06-18T13:21:19.130Z,34.81
2017-06-18T13:22:19.129Z,34.72
2017-06-18T13:23:19.134Z,34.81
2017-06-18T13:24:19.138Z,34.33
2017-06-18T13:25:19.137Z,34.81
2017-06-18T13:26:18.840Z,34.81
2017-06-18T13:27:19.143Z,35.01
2017-06-18T13:28:18.843Z,35.11
2017-06-18T13:29:19.158Z,35.49
2017-06-18T13:30:19.152Z,35.59
2017-06-18T13:31:19.156Z,35.69
2017-06-18T13:32:19.161Z,35.3